sensor_id;sensor_type;location;lat;lon;timestamp;P1;durP1;ratioP1;P2;durP2;ratioP2
46701;SDS011;33449;50.712;7.124;2023-02-15T00:03:32;61.92;;;26.90;;
46701;SDS011;33449;50.712;7.124;2023-02-15T00:06:17;57.58;;;25.73;;
46701;SDS011;33449;50.712;7.124;2023-02-15T00:08:54;67.63;;;26.75;;
46701;SDS011;33449;50.712;7.124;2023-02-15T00:11:28;40.13;;;20.15;;
46701;SDS011;33449;50.712;7.124;2023-02-15T00:17:06;59.72;;;27.13;;
46701;SDS011;33449;50.712;7.124;2023-02-15T00:19:33;55.67;;;25.50;;
46701;SDS011;33449;50.712;7.124;2023-02-15T00:22:07;61.08;;;26.23;;
46701;SDS011;33449;50.712;7.124;2023-02-15T00:27:19;55.83;;;27.08;;
46701;SDS011;33449;50.712;7.124;2023-02-15T00:29:46;58.58;;;23.02;;
46701;SDS011;33449;50.712;7.124;2023-02-15T00:32:32;65.28;;;27.35;;
46701;SDS011;33449;50.712;7.124;2023-02-15T00:35:00;60.95;;;27.75;;
46701;SDS011;33449;50.712;7.124;2023-02-15T00:37:49;59.70;;;25.98;;
46701;SDS011;33449;50.712;7.124;2023-02-15T00:40:23;64.65;;;28.70;;
46701;SDS011;33449;50.712;7.124;2023-02-15T00:42:51;64.78;;;28.85;;
46701;SDS011;33449;50.712;7.124;2023-02-15T00:45:34;69.28;;;29.13;;
46701;SDS011;33449;50.712;7.124;2023-02-15T00:48:12;68.15;;;29.55;;
46701;SDS011;33449;50.712;7.124;2023-02-15T00:50:53;64.20;;;28.83;;
46701;SDS011;33449;50.712;7.124;2023-02-15T00:53:23;68.55;;;28.65;;
46701;SDS011;33449;50.712;7.124;2023-02-15T00:55:51;61.80;;;28.55;;
46701;SDS011;33449;50.712;7.124;2023-02-15T00:58:28;69.00;;;30.60;;
46701;SDS011;33449;50.712;7.124;2023-02-15T01:01:08;65.28;;;30.55;;
46701;SDS011;33449;50.712;7.124;2023-02-15T01:03:36;63.85;;;30.13;;
46701;SDS011;33449;50.712;7.124;2023-02-15T01:06:10;44.95;;;19.08;;
46701;SDS011;33449;50.712;7.124;2023-02-15T01:08:43;60.80;;;27.23;;
46701;SDS011;33449;50.712;7.124;2023-02-15T01:11:17;67.40;;;28.33;;
46701;SDS011;33449;50.712;7.124;2023-02-15T01:13:54;68.78;;;29.40;;
46701;SDS011;33449;50.712;7.124;2023-02-15T01:19:08;69.40;;;28.67;;
46701;SDS011;33449;50.712;7.124;2023-02-15T01:21:35;63.08;;;27.77;;
46701;SDS011;33449;50.712;7.124;2023-02-15T01:24:10;69.22;;;29.88;;
46701;SDS011;33449;50.712;7.124;2023-02-15T01:32:13;72.35;;;29.25;;
46701;SDS011;33449;50.712;7.124;2023-02-15T01:34:41;77.43;;;30.70;;
46701;SDS011;33449;50.712;7.124;2023-02-15T01:37:16;68.22;;;29.83;;
46701;SDS011;33449;50.712;7.124;2023-02-15T01:39:44;71.30;;;29.10;;
46701;SDS011;33449;50.712;7.124;2023-02-15T01:42:20;76.95;;;30.55;;
46701;SDS011;33449;50.712;7.124;2023-02-15T01:44:55;66.22;;;27.95;;
46701;SDS011;33449;50.712;7.124;2023-02-15T01:53:05;73.07;;;31.02;;
46701;SDS011;33449;50.712;7.124;2023-02-15T01:55:34;68.25;;;27.90;;
46701;SDS011;33449;50.712;7.124;2023-02-15T01:58:12;74.35;;;30.95;;
46701;SDS011;33449;50.712;7.124;2023-02-15T02:00:44;63.88;;;27.25;;
46701;SDS011;33449;50.712;7.124;2023-02-15T02:03:14;70.82;;;30.95;;
46701;SDS011;33449;50.712;7.124;2023-02-15T02:05:46;65.45;;;27.65;;
46701;SDS011;33449;50.712;7.124;2023-02-15T02:08:20;67.05;;;27.60;;
46701;SDS011;33449;50.712;7.124;2023-02-15T02:10:55;68.13;;;29.58;;
46701;SDS011;33449;50.712;7.124;2023-02-15T02:13:24;71.18;;;29.75;;
46701;SDS011;33449;50.712;7.124;2023-02-15T02:21:09;66.18;;;27.88;;
46701;SDS011;33449;50.712;7.124;2023-02-15T02:24:01;62.75;;;27.05;;
46701;SDS011;33449;50.712;7.124;2023-02-15T02:37:47;56.33;;;23.38;;
46701;SDS011;33449;50.712;7.124;2023-02-15T02:46:06;69.03;;;28.08;;
46701;SDS011;33449;50.712;7.124;2023-02-15T02:48:40;66.22;;;27.48;;
46701;SDS011;33449;50.712;7.124;2023-02-15T02:51:10;69.85;;;29.45;;
46701;SDS011;33449;50.712;7.124;2023-02-15T02:53:40;69.43;;;30.73;;
46701;SDS011;33449;50.712;7.124;2023-02-15T02:56:28;74.38;;;30.25;;
46701;SDS011;33449;50.712;7.124;2023-02-15T03:01:42;73.82;;;28.10;;
46701;SDS011;33449;50.712;7.124;2023-02-15T03:04:15;79.75;;;29.77;;
46701;SDS011;33449;50.712;7.124;2023-02-15T03:06:50;76.43;;;30.30;;
46701;SDS011;33449;50.712;7.124;2023-02-15T03:09:25;80.07;;;30.52;;
46701;SDS011;33449;50.712;7.124;2023-02-15T03:12:12;69.78;;;29.63;;
46701;SDS011;33449;50.712;7.124;2023-02-15T03:14:40;64.63;;;26.95;;
46701;SDS011;33449;50.712;7.124;2023-02-15T03:17:18;78.78;;;30.88;;
46701;SDS011;33449;50.712;7.124;2023-02-15T03:19:53;82.90;;;30.75;;
46701;SDS011;33449;50.712;7.124;2023-02-15T03:22:33;63.28;;;23.55;;
46701;SDS011;33449;50.712;7.124;2023-02-15T03:25:21;49.38;;;23.48;;
46701;SDS011;33449;50.712;7.124;2023-02-15T03:27:53;69.70;;;28.83;;
46701;SDS011;33449;50.712;7.124;2023-02-15T03:30:30;70.55;;;28.02;;
46701;SDS011;33449;50.712;7.124;2023-02-15T03:33:04;78.90;;;30.95;;
46701;SDS011;33449;50.712;7.124;2023-02-15T03:35:55;73.20;;;31.27;;
46701;SDS011;33449;50.712;7.124;2023-02-15T03:38:33;69.15;;;26.33;;
46701;SDS011;33449;50.712;7.124;2023-02-15T03:41:07;71.10;;;26.85;;
46701;SDS011;33449;50.712;7.124;2023-02-15T03:43:54;72.30;;;30.25;;
46701;SDS011;33449;50.712;7.124;2023-02-15T03:46:43;51.17;;;22.75;;
46701;SDS011;33449;50.712;7.124;2023-02-15T03:49:24;56.83;;;22.73;;
46701;SDS011;33449;50.712;7.124;2023-02-15T03:52:03;52.25;;;21.08;;
46701;SDS011;33449;50.712;7.124;2023-02-15T03:54:34;70.45;;;28.88;;
46701;SDS011;33449;50.712;7.124;2023-02-15T03:57:28;36.50;;;13.47;;
46701;SDS011;33449;50.712;7.124;2023-02-15T04:00:15;61.95;;;23.77;;
46701;SDS011;33449;50.712;7.124;2023-02-15T04:03:09;71.97;;;29.52;;
46701;SDS011;33449;50.712;7.124;2023-02-15T04:05:50;72.57;;;29.83;;
46701;SDS011;33449;50.712;7.124;2023-02-15T04:08:26;73.63;;;27.92;;
46701;SDS011;33449;50.712;7.124;2023-02-15T04:11:16;78.25;;;29.67;;
46701;SDS011;33449;50.712;7.124;2023-02-15T04:13:51;53.78;;;20.40;;
46701;SDS011;33449;50.712;7.124;2023-02-15T04:16:28;78.82;;;29.50;;
46701;SDS011;33449;50.712;7.124;2023-02-15T04:19:05;73.38;;;28.58;;
46701;SDS011;33449;50.712;7.124;2023-02-15T04:21:57;63.13;;;24.75;;
46701;SDS011;33449;50.712;7.124;2023-02-15T04:24:45;75.45;;;28.48;;
46701;SDS011;33449;50.712;7.124;2023-02-15T04:27:35;76.22;;;28.73;;
46701;SDS011;33449;50.712;7.124;2023-02-15T04:32:45;49.72;;;19.10;;
46701;SDS011;33449;50.712;7.124;2023-02-15T04:35:22;52.80;;;22.85;;
46701;SDS011;33449;50.712;7.124;2023-02-15T04:38:09;70.97;;;26.63;;
46701;SDS011;33449;50.712;7.124;2023-02-15T04:40:53;54.25;;;21.77;;
46701;SDS011;33449;50.712;7.124;2023-02-15T04:43:47;67.80;;;26.00;;
46701;SDS011;33449;50.712;7.124;2023-02-15T04:46:23;62.60;;;26.27;;
46701;SDS011;33449;50.712;7.124;2023-02-15T04:49:01;73.70;;;28.88;;
46701;SDS011;33449;50.712;7.124;2023-02-15T04:51:34;60.15;;;24.08;;
46701;SDS011;33449;50.712;7.124;2023-02-15T04:54:10;64.25;;;25.92;;
46701;SDS011;33449;50.712;7.124;2023-02-15T04:56:43;56.72;;;24.17;;
46701;SDS011;33449;50.712;7.124;2023-02-15T04:59:26;55.25;;;23.73;;
46701;SDS011;33449;50.712;7.124;2023-02-15T05:01:55;83.65;;;29.52;;
46701;SDS011;33449;50.712;7.124;2023-02-15T05:04:41;71.38;;;28.38;;
46701;SDS011;33449;50.712;7.124;2023-02-15T05:07:13;81.25;;;30.67;;
46701;SDS011;33449;50.712;7.124;2023-02-15T05:09:54;79.22;;;31.60;;
46701;SDS011;33449;50.712;7.124;2023-02-15T05:12:29;61.50;;;24.98;;
46701;SDS011;33449;50.712;7.124;2023-02-15T05:14:59;69.93;;;25.58;;
46701;SDS011;33449;50.712;7.124;2023-02-15T05:18:13;67.32;;;27.90;;
46701;SDS011;33449;50.712;7.124;2023-02-15T05:21:03;67.80;;;26.77;;
46701;SDS011;33449;50.712;7.124;2023-02-15T05:24:01;71.38;;;26.88;;
46701;SDS011;33449;50.712;7.124;2023-02-15T05:26:54;46.28;;;18.98;;
46701;SDS011;33449;50.712;7.124;2023-02-15T05:29:56;48.95;;;21.27;;
46701;SDS011;33449;50.712;7.124;2023-02-15T05:33:07;67.38;;;25.10;;
46701;SDS011;33449;50.712;7.124;2023-02-15T05:40:01;65.68;;;26.35;;
46701;SDS011;33449;50.712;7.124;2023-02-15T05:42:47;31.15;;;11.75;;
46701;SDS011;33449;50.712;7.124;2023-02-15T05:45:37;72.57;;;27.27;;
46701;SDS011;33449;50.712;7.124;2023-02-15T05:48:06;70.47;;;27.42;;
46701;SDS011;33449;50.712;7.124;2023-02-15T05:54:25;65.60;;;27.98;;
46701;SDS011;33449;50.712;7.124;2023-02-15T05:57:44;47.70;;;19.70;;
46701;SDS011;33449;50.712;7.124;2023-02-15T06:00:34;68.18;;;26.95;;
46701;SDS011;33449;50.712;7.124;2023-02-15T06:03:04;72.65;;;27.67;;
46701;SDS011;33449;50.712;7.124;2023-02-15T06:05:59;55.63;;;20.10;;
46701;SDS011;33449;50.712;7.124;2023-02-15T06:08:45;59.80;;;22.42;;
46701;SDS011;33449;50.712;7.124;2023-02-15T06:11:32;57.78;;;20.17;;
46701;SDS011;33449;50.712;7.124;2023-02-15T06:17:13;53.10;;;22.27;;
46701;SDS011;33449;50.712;7.124;2023-02-15T06:20:02;65.55;;;26.02;;
46701;SDS011;33449;50.712;7.124;2023-02-15T06:22:35;62.47;;;24.65;;
46701;SDS011;33449;50.712;7.124;2023-02-15T06:25:24;58.92;;;23.20;;
46701;SDS011;33449;50.712;7.124;2023-02-15T06:28:06;36.30;;;18.23;;
46701;SDS011;33449;50.712;7.124;2023-02-15T06:30:38;71.78;;;27.40;;
46701;SDS011;33449;50.712;7.124;2023-02-15T06:33:30;67.38;;;27.00;;
46701;SDS011;33449;50.712;7.124;2023-02-15T06:36:20;67.80;;;22.77;;
46701;SDS011;33449;50.712;7.124;2023-02-15T06:39:38;62.85;;;26.10;;
46701;SDS011;33449;50.712;7.124;2023-02-15T06:45:27;52.20;;;21.27;;
46701;SDS011;33449;50.712;7.124;2023-02-15T06:48:20;67.15;;;26.20;;
46701;SDS011;33449;50.712;7.124;2023-02-15T06:51:03;62.55;;;25.40;;
46701;SDS011;33449;50.712;7.124;2023-02-15T06:53:40;62.70;;;23.52;;
46701;SDS011;33449;50.712;7.124;2023-02-15T06:59:37;64.55;;;25.50;;
46701;SDS011;33449;50.712;7.124;2023-02-15T07:02:19;60.88;;;24.13;;
46701;SDS011;33449;50.712;7.124;2023-02-15T07:04:54;48.13;;;23.23;;
46701;SDS011;33449;50.712;7.124;2023-02-15T07:07:31;58.65;;;22.92;;
46701;SDS011;33449;50.712;7.124;2023-02-15T07:10:16;54.40;;;23.08;;
46701;SDS011;33449;50.712;7.124;2023-02-15T07:12:55;62.58;;;23.98;;
46701;SDS011;33449;50.712;7.124;2023-02-15T07:15:49;58.53;;;24.25;;
46701;SDS011;33449;50.712;7.124;2023-02-15T07:18:29;49.38;;;21.10;;
46701;SDS011;33449;50.712;7.124;2023-02-15T07:21:01;61.83;;;24.15;;
46701;SDS011;33449;50.712;7.124;2023-02-15T08:00:15;47.05;;;21.15;;
46701;SDS011;33449;50.712;7.124;2023-02-15T08:02:49;43.15;;;19.25;;
46701;SDS011;33449;50.712;7.124;2023-02-15T08:05:35;37.70;;;16.63;;
46701;SDS011;33449;50.712;7.124;2023-02-15T08:08:03;36.33;;;15.73;;
46701;SDS011;33449;50.712;7.124;2023-02-15T08:10:30;33.47;;;15.40;;
46701;SDS011;33449;50.712;7.124;2023-02-15T08:13:15;40.67;;;18.42;;
46701;SDS011;33449;50.712;7.124;2023-02-15T08:15:52;35.67;;;14.63;;
46701;SDS011;33449;50.712;7.124;2023-02-15T08:18:19;39.03;;;17.55;;
46701;SDS011;33449;50.712;7.124;2023-02-15T08:20:49;42.15;;;18.77;;
46701;SDS011;33449;50.712;7.124;2023-02-15T08:23:16;27.63;;;14.43;;
46701;SDS011;33449;50.712;7.124;2023-02-15T08:25:44;37.75;;;17.23;;
46701;SDS011;33449;50.712;7.124;2023-02-15T08:28:11;44.80;;;19.48;;
46701;SDS011;33449;50.712;7.124;2023-02-15T08:30:38;44.75;;;17.80;;
46701;SDS011;33449;50.712;7.124;2023-02-15T08:33:05;42.28;;;17.52;;
46701;SDS011;33449;50.712;7.124;2023-02-15T08:35:33;36.97;;;13.90;;
46701;SDS011;33449;50.712;7.124;2023-02-15T08:38:00;31.98;;;14.68;;
46701;SDS011;33449;50.712;7.124;2023-02-15T08:40:27;42.88;;;17.33;;
46701;SDS011;33449;50.712;7.124;2023-02-15T08:42:54;27.15;;;11.52;;
46701;SDS011;33449;50.712;7.124;2023-02-15T08:45:23;27.88;;;13.85;;
46701;SDS011;33449;50.712;7.124;2023-02-15T08:47:52;38.97;;;16.55;;
46701;SDS011;33449;50.712;7.124;2023-02-15T08:50:19;35.40;;;16.17;;
46701;SDS011;33449;50.712;7.124;2023-02-15T08:52:46;26.45;;;14.27;;
46701;SDS011;33449;50.712;7.124;2023-02-15T08:55:22;33.97;;;14.98;;
46701;SDS011;33449;50.712;7.124;2023-02-15T08:57:55;32.13;;;16.48;;
46701;SDS011;33449;50.712;7.124;2023-02-15T09:00:28;30.70;;;14.20;;
46701;SDS011;33449;50.712;7.124;2023-02-15T09:03:02;34.72;;;15.30;;
46701;SDS011;33449;50.712;7.124;2023-02-15T09:05:34;30.75;;;13.70;;
46701;SDS011;33449;50.712;7.124;2023-02-15T09:08:07;38.75;;;16.90;;
46701;SDS011;33449;50.712;7.124;2023-02-15T09:10:34;27.95;;;15.23;;
46701;SDS011;33449;50.712;7.124;2023-02-15T09:13:01;32.65;;;14.40;;
46701;SDS011;33449;50.712;7.124;2023-02-15T09:15:28;31.00;;;14.93;;
46701;SDS011;33449;50.712;7.124;2023-02-15T09:17:55;31.80;;;12.52;;
46701;SDS011;33449;50.712;7.124;2023-02-15T09:20:25;32.20;;;15.73;;
46701;SDS011;33449;50.712;7.124;2023-02-15T09:22:52;36.53;;;16.00;;
46701;SDS011;33449;50.712;7.124;2023-02-15T09:25:24;31.48;;;14.85;;
46701;SDS011;33449;50.712;7.124;2023-02-15T09:27:51;28.60;;;13.00;;
46701;SDS011;33449;50.712;7.124;2023-02-15T09:30:18;31.20;;;14.95;;
46701;SDS011;33449;50.712;7.124;2023-02-15T09:32:45;21.00;;;11.27;;
46701;SDS011;33449;50.712;7.124;2023-02-15T09:35:13;19.80;;;9.90;;
46701;SDS011;33449;50.712;7.124;2023-02-15T09:37:40;22.55;;;11.27;;
46701;SDS011;33449;50.712;7.124;2023-02-15T09:40:08;24.10;;;12.82;;
46701;SDS011;33449;50.712;7.124;2023-02-15T09:42:39;31.67;;;14.48;;
46701;SDS011;33449;50.712;7.124;2023-02-15T09:48:03;30.23;;;15.55;;
46701;SDS011;33449;50.712;7.124;2023-02-15T10:12:06;17.83;;;9.73;;
46701;SDS011;33449;50.712;7.124;2023-02-15T10:17:29;29.40;;;14.52;;
46701;SDS011;33449;50.712;7.124;2023-02-15T10:25:07;39.72;;;17.48;;
46701;SDS011;33449;50.712;7.124;2023-02-15T10:27:45;26.00;;;12.73;;
46701;SDS011;33449;50.712;7.124;2023-02-15T10:30:14;24.17;;;12.63;;
46701;SDS011;33449;50.712;7.124;2023-02-15T10:38:13;20.92;;;10.23;;
46701;SDS011;33449;50.712;7.124;2023-02-15T10:48:47;22.50;;;11.93;;
46701;SDS011;33449;50.712;7.124;2023-02-15T10:51:23;31.42;;;13.75;;
46701;SDS011;33449;50.712;7.124;2023-02-15T10:59:12;20.63;;;10.43;;
46701;SDS011;33449;50.712;7.124;2023-02-15T11:01:49;27.63;;;14.75;;
46701;SDS011;33449;50.712;7.124;2023-02-15T11:06:53;25.85;;;13.75;;
46701;SDS011;33449;50.712;7.124;2023-02-15T11:09:21;23.52;;;11.10;;
46701;SDS011;33449;50.712;7.124;2023-02-15T11:11:50;27.67;;;13.95;;
46701;SDS011;33449;50.712;7.124;2023-02-15T11:16:50;28.38;;;13.63;;
46701;SDS011;33449;50.712;7.124;2023-02-15T11:19:22;22.27;;;12.80;;
46701;SDS011;33449;50.712;7.124;2023-02-15T11:21:55;24.00;;;13.88;;
46701;SDS011;33449;50.712;7.124;2023-02-15T11:24:24;20.48;;;10.32;;
46701;SDS011;33449;50.712;7.124;2023-02-15T11:29:33;27.10;;;13.77;;
46701;SDS011;33449;50.712;7.124;2023-02-15T11:32:03;22.58;;;11.65;;
46701;SDS011;33449;50.712;7.124;2023-02-15T11:34:53;25.52;;;14.30;;
46701;SDS011;33449;50.712;7.124;2023-02-15T11:37:24;26.00;;;14.20;;
46701;SDS011;33449;50.712;7.124;2023-02-15T11:39:54;21.73;;;12.25;;
46701;SDS011;33449;50.712;7.124;2023-02-15T11:42:23;24.65;;;13.48;;
46701;SDS011;33449;50.712;7.124;2023-02-15T11:47:18;25.63;;;12.65;;
46701;SDS011;33449;50.712;7.124;2023-02-15T11:49:45;24.58;;;13.32;;
46701;SDS011;33449;50.712;7.124;2023-02-15T11:52:13;24.80;;;12.82;;
46701;SDS011;33449;50.712;7.124;2023-02-15T11:54:42;25.73;;;12.68;;
46701;SDS011;33449;50.712;7.124;2023-02-15T11:57:14;20.40;;;12.02;;
46701;SDS011;33449;50.712;7.124;2023-02-15T11:59:46;20.33;;;10.55;;
46701;SDS011;33449;50.712;7.124;2023-02-15T12:02:18;20.70;;;10.95;;
46701;SDS011;33449;50.712;7.124;2023-02-15T12:04:50;21.00;;;10.70;;
46701;SDS011;33449;50.712;7.124;2023-02-15T12:07:30;25.25;;;14.00;;
46701;SDS011;33449;50.712;7.124;2023-02-15T12:10:10;25.40;;;13.32;;
46701;SDS011;33449;50.712;7.124;2023-02-15T12:12:43;28.98;;;13.20;;
46701;SDS011;33449;50.712;7.124;2023-02-15T12:15:11;20.70;;;11.13;;
46701;SDS011;33449;50.712;7.124;2023-02-15T12:17:39;19.50;;;10.13;;
46701;SDS011;33449;50.712;7.124;2023-02-15T12:22:54;21.33;;;12.10;;
46701;SDS011;33449;50.712;7.124;2023-02-15T12:27:52;23.50;;;13.57;;
46701;SDS011;33449;50.712;7.124;2023-02-15T12:30:32;14.80;;;8.43;;
46701;SDS011;33449;50.712;7.124;2023-02-15T12:35:41;16.10;;;9.35;;
46701;SDS011;33449;50.712;7.124;2023-02-15T12:40:36;22.02;;;11.95;;
46701;SDS011;33449;50.712;7.124;2023-02-15T12:45:57;30.75;;;12.52;;
46701;SDS011;33449;50.712;7.124;2023-02-15T12:48:40;21.27;;;11.05;;
46701;SDS011;33449;50.712;7.124;2023-02-15T12:51:12;22.92;;;12.95;;
46701;SDS011;33449;50.712;7.124;2023-02-15T12:53:40;19.98;;;10.88;;
46701;SDS011;33449;50.712;7.124;2023-02-15T12:56:10;23.10;;;12.20;;
46701;SDS011;33449;50.712;7.124;2023-02-15T12:58:38;19.10;;;11.30;;
46701;SDS011;33449;50.712;7.124;2023-02-15T13:03:36;20.77;;;12.00;;
46701;SDS011;33449;50.712;7.124;2023-02-15T13:06:04;21.23;;;12.02;;
46701;SDS011;33449;50.712;7.124;2023-02-15T13:08:37;24.73;;;12.10;;
46701;SDS011;33449;50.712;7.124;2023-02-15T13:11:06;18.10;;;10.68;;
46701;SDS011;33449;50.712;7.124;2023-02-15T13:13:45;26.55;;;13.38;;
46701;SDS011;33449;50.712;7.124;2023-02-15T13:16:14;24.80;;;12.25;;
46701;SDS011;33449;50.712;7.124;2023-02-15T13:18:45;23.65;;;12.63;;
46701;SDS011;33449;50.712;7.124;2023-02-15T13:21:14;23.13;;;11.70;;
46701;SDS011;33449;50.712;7.124;2023-02-15T13:23:47;17.40;;;10.85;;
46701;SDS011;33449;50.712;7.124;2023-02-15T13:26:16;21.27;;;12.55;;
46701;SDS011;33449;50.712;7.124;2023-02-15T13:28:47;20.40;;;12.57;;
46701;SDS011;33449;50.712;7.124;2023-02-15T13:31:15;24.58;;;12.70;;
46701;SDS011;33449;50.712;7.124;2023-02-15T13:39:23;20.83;;;11.25;;
46701;SDS011;33449;50.712;7.124;2023-02-15T13:41:56;27.27;;;11.65;;
46701;SDS011;33449;50.712;7.124;2023-02-15T13:44:27;24.50;;;11.68;;
46701;SDS011;33449;50.712;7.124;2023-02-15T13:52:23;19.05;;;10.73;;
46701;SDS011;33449;50.712;7.124;2023-02-15T13:55:06;19.83;;;11.93;;
46701;SDS011;33449;50.712;7.124;2023-02-15T14:00:48;17.85;;;10.57;;
46701;SDS011;33449;50.712;7.124;2023-02-15T14:06:02;23.58;;;13.20;;
46701;SDS011;33449;50.712;7.124;2023-02-15T14:11:37;21.75;;;12.45;;
46701;SDS011;33449;50.712;7.124;2023-02-15T14:16:41;22.20;;;11.82;;
46701;SDS011;33449;50.712;7.124;2023-02-15T14:19:38;22.88;;;12.38;;
46701;SDS011;33449;50.712;7.124;2023-02-15T14:25:38;19.05;;;11.57;;
46701;SDS011;33449;50.712;7.124;2023-02-15T14:31:18;20.70;;;11.73;;
46701;SDS011;33449;50.712;7.124;2023-02-15T14:34:15;22.67;;;12.10;;
46701;SDS011;33449;50.712;7.124;2023-02-15T14:39:56;21.98;;;12.90;;
46701;SDS011;33449;50.712;7.124;2023-02-15T14:42:54;22.33;;;11.95;;
46701;SDS011;33449;50.712;7.124;2023-02-15T14:45:54;22.67;;;12.13;;
46701;SDS011;33449;50.712;7.124;2023-02-15T14:48:37;23.95;;;11.98;;
46701;SDS011;33449;50.712;7.124;2023-02-15T14:53:52;22.58;;;11.57;;
46701;SDS011;33449;50.712;7.124;2023-02-15T15:11:43;20.50;;;11.02;;
46701;SDS011;33449;50.712;7.124;2023-02-15T15:14:42;19.05;;;10.50;;
46701;SDS011;33449;50.712;7.124;2023-02-15T15:17:55;23.48;;;12.57;;
46701;SDS011;33449;50.712;7.124;2023-02-15T15:20:51;25.13;;;12.23;;
46701;SDS011;33449;50.712;7.124;2023-02-15T15:24:10;23.50;;;10.38;;
46701;SDS011;33449;50.712;7.124;2023-02-15T15:41:43;22.92;;;10.20;;
46701;SDS011;33449;50.712;7.124;2023-02-15T15:49:37;22.30;;;12.52;;
46701;SDS011;33449;50.712;7.124;2023-02-15T15:52:18;21.65;;;11.20;;
46701;SDS011;33449;50.712;7.124;2023-02-15T15:55:02;21.35;;;12.60;;
46701;SDS011;33449;50.712;7.124;2023-02-15T15:57:41;22.70;;;11.55;;
46701;SDS011;33449;50.712;7.124;2023-02-15T16:00:32;24.63;;;12.30;;
46701;SDS011;33449;50.712;7.124;2023-02-15T16:03:02;25.92;;;11.45;;
46701;SDS011;33449;50.712;7.124;2023-02-15T16:05:39;23.98;;;12.57;;
46701;SDS011;33449;50.712;7.124;2023-02-15T16:08:13;23.38;;;12.93;;
46701;SDS011;33449;50.712;7.124;2023-02-15T16:11:11;25.17;;;12.65;;
46701;SDS011;33449;50.712;7.124;2023-02-15T16:13:45;26.60;;;11.48;;
46701;SDS011;33449;50.712;7.124;2023-02-15T16:16:28;25.45;;;12.93;;
46701;SDS011;33449;50.712;7.124;2023-02-15T16:19:05;25.65;;;12.85;;
46701;SDS011;33449;50.712;7.124;2023-02-15T16:21:48;23.33;;;12.00;;
46701;SDS011;33449;50.712;7.124;2023-02-15T16:24:23;21.92;;;12.27;;
46701;SDS011;33449;50.712;7.124;2023-02-15T16:29:45;21.15;;;11.27;;
46701;SDS011;33449;50.712;7.124;2023-02-15T16:34:50;27.77;;;13.50;;
46701;SDS011;33449;50.712;7.124;2023-02-15T16:37:27;23.67;;;12.63;;
46701;SDS011;33449;50.712;7.124;2023-02-15T16:40:28;22.98;;;13.25;;
46701;SDS011;33449;50.712;7.124;2023-02-15T16:43:20;23.60;;;12.40;;
46701;SDS011;33449;50.712;7.124;2023-02-15T16:46:02;26.45;;;12.73;;
46701;SDS011;33449;50.712;7.124;2023-02-15T16:48:34;19.38;;;9.90;;
46701;SDS011;33449;50.712;7.124;2023-02-15T16:51:09;26.33;;;11.25;;
46701;SDS011;33449;50.712;7.124;2023-02-15T16:53:38;21.92;;;11.70;;
46701;SDS011;33449;50.712;7.124;2023-02-15T16:56:17;22.00;;;12.30;;
46701;SDS011;33449;50.712;7.124;2023-02-15T16:58:54;28.08;;;13.25;;
46701;SDS011;33449;50.712;7.124;2023-02-15T17:09:35;24.58;;;12.35;;
46701;SDS011;33449;50.712;7.124;2023-02-15T17:20:26;22.60;;;10.13;;
46701;SDS011;33449;50.712;7.124;2023-02-15T17:23:03;23.73;;;11.35;;
46701;SDS011;33449;50.712;7.124;2023-02-15T17:25:39;24.83;;;12.13;;
46701;SDS011;33449;50.712;7.124;2023-02-15T17:28:27;24.58;;;11.77;;
46701;SDS011;33449;50.712;7.124;2023-02-15T17:30:59;25.48;;;13.95;;
46701;SDS011;33449;50.712;7.124;2023-02-15T17:33:37;26.83;;;12.35;;
46701;SDS011;33449;50.712;7.124;2023-02-15T17:36:25;27.15;;;12.23;;
46701;SDS011;33449;50.712;7.124;2023-02-15T17:39:19;23.30;;;11.75;;
46701;SDS011;33449;50.712;7.124;2023-02-15T17:41:53;25.75;;;13.38;;
46701;SDS011;33449;50.712;7.124;2023-02-15T17:44:28;24.15;;;12.80;;
46701;SDS011;33449;50.712;7.124;2023-02-15T17:47:03;24.58;;;9.43;;
46701;SDS011;33449;50.712;7.124;2023-02-15T17:49:43;29.15;;;13.27;;
46701;SDS011;33449;50.712;7.124;2023-02-15T17:52:12;25.80;;;12.55;;
46701;SDS011;33449;50.712;7.124;2023-02-15T17:54:45;20.73;;;12.15;;
46701;SDS011;33449;50.712;7.124;2023-02-15T17:57:39;27.55;;;12.63;;
46701;SDS011;33449;50.712;7.124;2023-02-15T18:00:13;23.73;;;12.07;;
46701;SDS011;33449;50.712;7.124;2023-02-15T18:03:04;27.47;;;13.10;;
46701;SDS011;33449;50.712;7.124;2023-02-15T18:05:52;26.02;;;12.73;;
46701;SDS011;33449;50.712;7.124;2023-02-15T18:08:43;24.30;;;12.82;;
46701;SDS011;33449;50.712;7.124;2023-02-15T18:11:34;24.35;;;12.18;;
46701;SDS011;33449;50.712;7.124;2023-02-15T18:14:11;26.00;;;13.43;;
46701;SDS011;33449;50.712;7.124;2023-02-15T18:16:43;26.23;;;13.02;;
46701;SDS011;33449;50.712;7.124;2023-02-15T18:19:31;32.72;;;14.32;;
46701;SDS011;33449;50.712;7.124;2023-02-15T18:22:08;27.17;;;12.32;;
46701;SDS011;33449;50.712;7.124;2023-02-15T18:24:35;29.13;;;14.13;;
46701;SDS011;33449;50.712;7.124;2023-02-15T18:27:42;25.50;;;13.65;;
46701;SDS011;33449;50.712;7.124;2023-02-15T18:30:18;26.65;;;14.43;;
46701;SDS011;33449;50.712;7.124;2023-02-15T18:32:49;30.02;;;15.13;;
46701;SDS011;33449;50.712;7.124;2023-02-15T18:35:25;29.42;;;12.98;;
46701;SDS011;33449;50.712;7.124;2023-02-15T18:37:54;25.08;;;13.55;;
46701;SDS011;33449;50.712;7.124;2023-02-15T18:40:26;28.27;;;14.38;;
46701;SDS011;33449;50.712;7.124;2023-02-15T18:42:59;26.85;;;13.23;;
46701;SDS011;33449;50.712;7.124;2023-02-15T18:45:30;30.33;;;15.60;;
46701;SDS011;33449;50.712;7.124;2023-02-15T18:48:12;23.20;;;13.63;;
46701;SDS011;33449;50.712;7.124;2023-02-15T18:50:44;27.58;;;14.98;;
46701;SDS011;33449;50.712;7.124;2023-02-15T18:53:19;26.75;;;14.68;;
46701;SDS011;33449;50.712;7.124;2023-02-15T18:55:46;27.48;;;14.23;;
46701;SDS011;33449;50.712;7.124;2023-02-15T18:58:18;28.45;;;14.45;;
46701;SDS011;33449;50.712;7.124;2023-02-15T19:00:48;29.35;;;13.48;;
46701;SDS011;33449;50.712;7.124;2023-02-15T19:03:21;28.48;;;14.55;;
46701;SDS011;33449;50.712;7.124;2023-02-15T19:05:56;32.45;;;14.57;;
46701;SDS011;33449;50.712;7.124;2023-02-15T19:08:23;27.20;;;14.55;;
46701;SDS011;33449;50.712;7.124;2023-02-15T19:10:51;31.52;;;15.25;;
46701;SDS011;33449;50.712;7.124;2023-02-15T19:13:18;27.75;;;15.07;;
46701;SDS011;33449;50.712;7.124;2023-02-15T19:15:46;29.45;;;14.15;;
46701;SDS011;33449;50.712;7.124;2023-02-15T19:18:16;31.13;;;14.27;;
46701;SDS011;33449;50.712;7.124;2023-02-15T19:20:47;30.45;;;14.05;;
46701;SDS011;33449;50.712;7.124;2023-02-15T19:23:21;34.38;;;16.33;;
46701;SDS011;33449;50.712;7.124;2023-02-15T19:28:32;30.67;;;15.60;;
46701;SDS011;33449;50.712;7.124;2023-02-15T19:30:59;31.42;;;15.95;;
46701;SDS011;33449;50.712;7.124;2023-02-15T19:33:40;32.50;;;16.27;;
46701;SDS011;33449;50.712;7.124;2023-02-15T19:36:14;28.48;;;15.07;;
46701;SDS011;33449;50.712;7.124;2023-02-15T19:38:45;31.70;;;15.32;;
46701;SDS011;33449;50.712;7.124;2023-02-15T19:41:17;36.10;;;15.73;;
46701;SDS011;33449;50.712;7.124;2023-02-15T19:43:54;33.65;;;17.85;;
46701;SDS011;33449;50.712;7.124;2023-02-15T19:46:25;30.30;;;15.55;;
46701;SDS011;33449;50.712;7.124;2023-02-15T19:48:57;37.63;;;18.23;;
46701;SDS011;33449;50.712;7.124;2023-02-15T19:51:26;29.85;;;16.15;;